createdAt,value
2019-03-17T00:00:43.425Z,9.50
2019-03-17T00:03:11.783Z,9.50
2019-03-17T00:05:40.138Z,9.50
2019-03-17T00:08:08.538Z,9.50
2019-03-17T00:10:36.940Z,9.60
2019-03-17T00:13:05.770Z,9.50
2019-03-17T00:15:34.071Z,9.60
2019-03-17T00:18:02.393Z,9.70
2019-03-17T00:20:30.773Z,9.70
2019-03-17T00:22:59.074Z,9.70
2019-03-17T00:25:27.455Z,9.70
2019-03-17T00:27:55.876Z,9.70
2019-03-17T00:30:24.327Z,9.70
2019-03-17T00:32:52.646Z,9.70
2019-03-17T00:35:20.937Z,9.80
2019-03-17T00:37:49.277Z,9.70
2019-03-17T00:40:17.590Z,9.80
2019-03-17T00:42:45.905Z,9.80
2019-03-17T00:45:14.285Z,9.70
2019-03-17T00:47:42.676Z,9.70
2019-03-17T00:50:11.476Z,9.80
2019-03-17T00:52:39.799Z,9.70
2019-03-17T00:55:08.150Z,9.80
2019-03-17T00:57:36.975Z,9.80
2019-03-17T01:00:05.593Z,9.80
2019-03-17T01:02:33.880Z,9.80
2019-03-17T01:05:02.351Z,9.80
2019-03-17T01:07:30.667Z,9.80
2019-03-17T01:09:59.073Z,9.80
2019-03-17T01:12:27.383Z,9.80
2019-03-17T01:14:55.759Z,9.70
2019-03-17T01:17:24.426Z,9.60
2019-03-17T01:19:52.742Z,9.60
2019-03-17T01:22:21.101Z,9.70
2019-03-17T01:24:49.395Z,9.70
2019-03-17T01:27:17.698Z,9.60
2019-03-17T01:29:46.055Z,9.70
2019-03-17T01:32:14.318Z,9.60
2019-03-17T01:34:42.672Z,9.60
2019-03-17T01:37:10.966Z,9.60
2019-03-17T01:39:39.307Z,9.60
2019-03-17T01:42:07.775Z,9.60
2019-03-17T01:44:36.141Z,9.60
2019-03-17T01:47:04.394Z,9.60
2019-03-17T01:49:32.706Z,9.60
2019-03-17T01:52:01.221Z,9.60
2019-03-17T01:54:29.837Z,9.50
2019-03-17T01:56:58.213Z,9.50
2019-03-17T01:59:26.499Z,9.60
2019-03-17T02:01:54.874Z,9.60
2019-03-17T02:04:23.133Z,9.50
2019-03-17T02:06:51.543Z,9.60
2019-03-17T02:09:19.809Z,9.60
2019-03-17T02:11:48.136Z,9.60
2019-03-17T02:14:16.433Z,9.60
2019-03-17T02:16:44.753Z,9.50
2019-03-17T02:19:13.064Z,9.50
2019-03-17T02:21:41.359Z,9.50
2019-03-17T02:24:09.609Z,9.50
2019-03-17T02:26:37.902Z,9.50
2019-03-17T02:29:06.506Z,9.50
2019-03-17T02:31:34.854Z,9.50
2019-03-17T02:34:03.291Z,9.50
2019-03-17T02:36:31.716Z,9.50
2019-03-17T02:39:00.415Z,9.40
2019-03-17T02:41:28.713Z,9.30
2019-03-17T02:43:57.147Z,9.30
2019-03-17T02:46:25.828Z,9.20
2019-03-17T02:48:54.142Z,9.30
2019-03-17T02:51:22.481Z,9.20
2019-03-17T02:53:50.734Z,9.20
2019-03-17T02:56:19.051Z,9.10
2019-03-17T02:58:47.341Z,9.10
2019-03-17T03:01:15.646Z,9.10
2019-03-17T03:03:44.835Z,9.20
2019-03-17T03:06:13.219Z,9.20
2019-03-17T03:08:41.551Z,9.20
2019-03-17T03:11:09.971Z,9.20
2019-03-17T03:13:38.271Z,9.20
2019-03-17T03:16:06.589Z,9.30
2019-03-17T03:18:36.079Z,9.30
2019-03-17T03:21:04.494Z,9.30
2019-03-17T03:23:32.799Z,9.40
2019-03-17T03:26:01.099Z,9.40
2019-03-17T03:28:29.339Z,9.40
2019-03-17T03:30:57.756Z,9.50
2019-03-17T03:33:26.051Z,9.50
2019-03-17T03:36:09.371Z,9.50
2019-03-17T03:38:24.329Z,9.50
2019-03-17T03:40:52.702Z,9.50
2019-03-17T03:43:20.984Z,9.50
2019-03-17T03:45:49.393Z,9.50
2019-03-17T03:48:17.672Z,9.50
2019-03-17T03:50:45.997Z,9.40
2019-03-17T03:53:14.266Z,9.50
2019-03-17T03:55:42.709Z,9.50
2019-03-17T03:58:10.936Z,9.50
2019-03-17T04:00:39.299Z,9.50
2019-03-17T04:03:07.574Z,9.40
2019-03-17T04:05:35.974Z,9.40
2019-03-17T04:08:04.298Z,9.40
2019-03-17T04:10:32.548Z,9.50
2019-03-17T04:13:00.897Z,9.40
2019-03-17T04:15:29.183Z,9.40
2019-03-17T04:17:57.574Z,9.30
2019-03-17T04:20:25.851Z,9.30
2019-03-17T04:22:54.526Z,9.40
2019-03-17T04:25:22.782Z,9.40
2019-03-17T04:27:51.080Z,9.40
2019-03-17T04:30:19.351Z,9.50
2019-03-17T04:32:47.659Z,9.40
2019-03-17T04:35:15.911Z,9.50
2019-03-17T04:37:44.307Z,9.50
2019-03-17T04:40:12.583Z,9.50
2019-03-17T04:42:40.891Z,9.40
2019-03-17T04:45:09.182Z,9.50
2019-03-17T04:47:37.626Z,9.40
2019-03-17T04:50:05.933Z,9.50
2019-03-17T04:52:34.315Z,9.40
2019-03-17T04:55:02.669Z,9.50
2019-03-17T04:57:30.986Z,9.50
2019-03-17T05:00:01.487Z,9.40
2019-03-17T05:02:29.791Z,9.40
2019-03-17T05:04:58.066Z,9.50
2019-03-17T05:07:26.383Z,9.40
2019-03-17T05:09:54.705Z,9.40
2019-03-17T05:12:22.998Z,9.40
2019-03-17T05:14:51.261Z,9.40
2019-03-17T05:17:19.535Z,9.40
2019-03-17T05:19:47.943Z,9.40
2019-03-17T05:22:16.225Z,9.30
2019-03-17T05:24:44.782Z,9.30
2019-03-17T05:27:13.691Z,9.30
2019-03-17T05:29:42.047Z,9.30
2019-03-17T05:32:10.335Z,9.30
2019-03-17T05:34:38.625Z,9.30
2019-03-17T05:37:07.135Z,9.20
2019-03-17T05:39:35.671Z,9.30
2019-03-17T05:42:04.423Z,9.30
2019-03-17T05:44:32.714Z,9.30
2019-03-17T05:47:00.998Z,9.30
2019-03-17T05:49:29.279Z,9.30
2019-03-17T05:51:57.539Z,9.20
2019-03-17T05:54:25.951Z,9.20
2019-03-17T05:56:54.227Z,9.20
2019-03-17T05:59:22.507Z,9.20
2019-03-17T06:01:50.798Z,9.20
2019-03-17T06:04:19.111Z,9.10
2019-03-17T06:06:47.360Z,9.10
2019-03-17T06:09:15.708Z,9.10
2019-03-17T06:11:44.376Z,9.00
2019-03-17T06:14:12.642Z,9.00
2019-03-17T06:16:40.995Z,8.90
2019-03-17T06:19:09.980Z,8.90
2019-03-17T06:21:39.504Z,8.80
2019-03-17T06:24:07.842Z,8.90
2019-03-17T06:26:36.153Z,8.90
2019-03-17T06:29:05.350Z,9.00
2019-03-17T06:31:34.417Z,9.00
2019-03-17T06:34:02.729Z,8.90
2019-03-17T06:36:31.031Z,9.00
2019-03-17T06:38:59.364Z,9.00
2019-03-17T06:41:28.462Z,9.10
2019-03-17T06:43:57.607Z,9.00
2019-03-17T06:46:25.968Z,9.00
2019-03-17T06:48:54.401Z,9.00
2019-03-17T06:51:22.705Z,9.00
2019-03-17T06:53:56.242Z,9.00
2019-03-17T06:56:21.125Z,9.00
2019-03-17T06:58:49.507Z,8.90
2019-03-17T07:01:18.727Z,8.90
2019-03-17T07:03:47.356Z,8.80
2019-03-17T07:06:15.609Z,8.80
2019-03-17T07:08:43.999Z,8.90
2019-03-17T07:11:12.342Z,8.90
2019-03-17T07:13:40.609Z,8.90
2019-03-17T07:16:08.943Z,8.90
2019-03-17T07:18:37.319Z,8.80
2019-03-17T07:21:05.908Z,8.80
2019-03-17T07:23:34.464Z,8.80
2019-03-17T07:26:02.983Z,8.70
2019-03-17T07:28:31.570Z,8.80
2019-03-17T07:30:59.900Z,8.80
2019-03-17T07:33:28.244Z,8.80
2019-03-17T07:35:56.563Z,8.90
2019-03-17T07:38:24.963Z,8.80
2019-03-17T07:40:53.427Z,8.80
2019-03-17T07:43:21.741Z,8.90
2019-03-17T07:45:50.059Z,8.80
2019-03-17T07:48:18.402Z,8.80
2019-03-17T07:50:46.772Z,8.80
2019-03-17T07:53:15.091Z,8.80
2019-03-17T07:55:43.366Z,8.70
2019-03-17T07:58:11.703Z,8.70
2019-03-17T08:00:39.987Z,8.70
2019-03-17T08:03:08.328Z,8.70
2019-03-17T08:05:36.632Z,8.70
2019-03-17T08:08:09.704Z,8.80
2019-03-17T08:10:34.980Z,8.80
2019-03-17T08:13:03.403Z,8.70
2019-03-17T08:15:31.697Z,8.80
2019-03-17T08:18:00.159Z,8.80
2019-03-17T08:20:28.506Z,8.90
2019-03-17T08:22:56.787Z,8.80
2019-03-17T08:25:25.126Z,8.70
2019-03-17T08:27:53.440Z,8.60
2019-03-17T08:30:21.807Z,8.60
2019-03-17T08:32:50.142Z,8.70
2019-03-17T08:35:18.527Z,8.70
2019-03-17T08:37:46.831Z,8.60
2019-03-17T08:40:15.223Z,8.60
2019-03-17T08:42:43.518Z,8.60
2019-03-17T08:45:11.997Z,8.50
2019-03-17T08:47:40.384Z,8.40
2019-03-17T08:50:08.972Z,8.40
2019-03-17T08:52:37.311Z,8.40
2019-03-17T08:55:05.764Z,8.40
2019-03-17T08:57:34.148Z,8.30
2019-03-17T09:00:02.495Z,8.20
2019-03-17T09:02:30.917Z,7.80
2019-03-17T09:04:59.266Z,7.40
2019-03-17T09:07:27.940Z,7.10
2019-03-17T09:09:56.756Z,7.00
2019-03-17T09:12:25.071Z,6.90
2019-03-17T09:14:53.528Z,6.80
2019-03-17T09:17:21.846Z,6.70
2019-03-17T09:19:50.208Z,6.70
2019-03-17T09:22:18.521Z,6.60
2019-03-17T09:24:46.873Z,6.50
2019-03-17T09:27:15.318Z,6.60
2019-03-17T09:29:43.609Z,6.70
2019-03-17T09:32:12.078Z,6.70
2019-03-17T09:34:41.517Z,6.90
2019-03-17T09:37:09.892Z,7.00
2019-03-17T09:39:38.259Z,7.00
2019-03-17T09:42:06.725Z,7.10
2019-03-17T09:44:36.124Z,7.10
2019-03-17T09:47:04.493Z,7.20
2019-03-17T09:49:33.241Z,7.40
2019-03-17T09:52:01.655Z,7.60
2019-03-17T09:54:30.088Z,7.80
2019-03-17T09:56:58.526Z,7.90
2019-03-17T09:59:27.003Z,8.10
2019-03-17T10:01:55.758Z,8.30
2019-03-17T10:04:24.134Z,8.30
2019-03-17T10:06:54.415Z,8.40
2019-03-17T10:09:22.776Z,8.50
2019-03-17T10:11:51.296Z,8.60
2019-03-17T10:14:19.615Z,8.60
2019-03-17T10:16:47.975Z,8.70
2019-03-17T10:19:16.306Z,8.90
2019-03-17T10:21:44.765Z,8.90
2019-03-17T10:24:13.162Z,9.10
2019-03-17T10:26:41.666Z,9.40
2019-03-17T10:29:10.075Z,9.70
2019-03-17T10:31:38.451Z,9.60
2019-03-17T10:34:06.887Z,9.30
2019-03-17T10:36:35.290Z,9.40
2019-03-17T10:39:12.303Z,9.10
2019-03-17T10:41:34.183Z,9.30
2019-03-17T10:44:02.925Z,9.30
2019-03-17T10:46:31.335Z,9.40
2019-03-17T10:48:59.810Z,9.50
2019-03-17T10:51:28.269Z,9.40
2019-03-17T10:53:56.716Z,9.50
2019-03-17T10:56:25.148Z,9.30
2019-03-17T10:58:53.516Z,9.40
2019-03-17T11:01:22.009Z,9.50
2019-03-17T11:03:50.434Z,9.40
2019-03-17T11:06:19.136Z,9.30
2019-03-17T11:08:47.459Z,9.40
2019-03-17T11:11:15.985Z,9.40
2019-03-17T11:13:44.406Z,9.20
2019-03-17T11:16:12.907Z,9.20
2019-03-17T11:18:41.359Z,9.20
2019-03-17T11:21:09.679Z,9.40
2019-03-17T11:23:38.139Z,9.40
2019-03-17T11:26:06.810Z,9.50
2019-03-17T11:28:35.142Z,9.50
2019-03-17T11:31:03.529Z,9.20
2019-03-17T11:33:32.001Z,9.00
2019-03-17T11:36:00.501Z,9.10
2019-03-17T11:38:29.144Z,9.00
2019-03-17T11:40:58.644Z,8.90
2019-03-17T11:43:26.997Z,8.90
2019-03-17T11:45:55.405Z,8.40
2019-03-17T11:48:24.126Z,7.40
2019-03-17T11:50:52.474Z,6.40
2019-03-17T11:53:20.860Z,6.10
2019-03-17T11:55:49.207Z,6.00
2019-03-17T11:58:17.640Z,5.70
2019-03-17T12:00:46.304Z,5.70
2019-03-17T12:03:16.222Z,5.90
2019-03-17T12:05:44.995Z,5.70
2019-03-17T12:08:13.471Z,5.80
2019-03-17T12:10:41.886Z,5.70
2019-03-17T12:13:10.372Z,5.80
2019-03-17T12:15:38.753Z,5.90
2019-03-17T12:18:07.541Z,6.00
2019-03-17T12:20:36.024Z,6.20
2019-03-17T12:23:04.397Z,6.40
2019-03-17T12:25:32.807Z,6.70
2019-03-17T12:28:01.309Z,7.00
2019-03-17T12:30:29.841Z,7.20
2019-03-17T12:32:58.332Z,7.30
2019-03-17T12:35:27.248Z,7.30
2019-03-17T12:37:55.842Z,7.50
2019-03-17T12:40:24.297Z,7.60
2019-03-17T12:42:53.118Z,7.80
2019-03-17T12:45:21.608Z,8.10
2019-03-17T12:47:50.046Z,8.20
2019-03-17T12:50:18.874Z,7.90
2019-03-17T12:52:47.416Z,7.60
2019-03-17T12:55:15.907Z,7.40
2019-03-17T12:57:44.697Z,7.20
2019-03-17T13:00:14.236Z,7.10
2019-03-17T13:02:42.771Z,7.00
2019-03-17T13:05:11.954Z,7.10
2019-03-17T13:07:41.701Z,7.20
2019-03-17T13:10:15.868Z,7.30
2019-03-17T13:12:41.871Z,7.50
2019-03-17T13:15:10.802Z,7.70
2019-03-17T13:17:41.962Z,7.90
2019-03-17T13:20:14.226Z,7.80
2019-03-17T13:22:45.245Z,8.00
2019-03-17T13:25:17.567Z,8.10
2019-03-17T13:27:52.509Z,8.30
2019-03-17T13:30:25.873Z,8.60
2019-03-17T13:33:08.543Z,8.70
2019-03-17T13:35:40.617Z,9.00
2019-03-17T13:38:15.104Z,9.10
2019-03-17T13:40:43.784Z,9.10
2019-03-17T13:43:12.221Z,9.30
2019-03-17T13:45:40.933Z,9.20
2019-03-17T13:48:09.397Z,9.10
2019-03-17T13:50:38.956Z,9.20
2019-03-17T13:53:07.619Z,9.40
2019-03-17T13:55:36.137Z,9.50
2019-03-17T13:58:04.777Z,9.50
2019-03-17T14:00:33.235Z,9.20
2019-03-17T14:03:01.757Z,9.00
2019-03-17T14:05:30.105Z,9.00
2019-03-17T14:07:58.720Z,9.10
2019-03-17T14:10:27.308Z,9.20
2019-03-17T14:12:55.721Z,9.20
2019-03-17T14:15:24.489Z,9.30
2019-03-17T14:17:53.135Z,9.20
2019-03-17T14:20:22.014Z,9.30
2019-03-17T14:22:50.760Z,9.10
2019-03-17T14:25:21.103Z,9.10
2019-03-17T14:27:49.590Z,9.30
2019-03-17T14:30:18.358Z,9.40
2019-03-17T14:32:46.820Z,9.20
2019-03-17T14:35:15.305Z,9.30
2019-03-17T14:37:43.878Z,9.00
2019-03-17T14:40:12.980Z,8.90
2019-03-17T14:42:41.367Z,8.80
2019-03-17T14:45:10.408Z,8.60
2019-03-17T14:47:38.914Z,8.50
2019-03-17T14:50:08.493Z,8.60
2019-03-17T14:52:37.116Z,8.50
2019-03-17T14:55:05.671Z,8.50
2019-03-17T14:57:34.245Z,8.50
2019-03-17T15:00:03.348Z,8.50
2019-03-17T15:02:32.001Z,8.70
2019-03-17T15:05:01.014Z,8.80
2019-03-17T15:07:29.525Z,8.80
2019-03-17T15:09:58.125Z,8.80
2019-03-17T15:12:26.757Z,8.70
2019-03-17T15:14:55.181Z,8.60
2019-03-17T15:17:23.816Z,8.50
2019-03-17T15:19:52.319Z,8.40
2019-03-17T15:22:21.023Z,8.50
2019-03-17T15:24:49.373Z,8.40
2019-03-17T15:27:17.783Z,8.50
2019-03-17T15:29:48.491Z,8.60
2019-03-17T15:32:16.979Z,8.60
2019-03-17T15:34:45.813Z,8.70
2019-03-17T15:37:15.545Z,8.70
2019-03-17T15:39:43.992Z,8.40
2019-03-17T15:42:12.479Z,8.30
2019-03-17T15:44:40.909Z,8.20
2019-03-17T15:47:09.364Z,8.20
2019-03-17T15:49:37.751Z,7.70
2019-03-17T15:52:06.300Z,7.40
2019-03-17T15:54:34.766Z,7.10
2019-03-17T15:57:03.442Z,6.60
2019-03-17T15:59:31.998Z,6.40
2019-03-17T16:02:00.581Z,6.50
2019-03-17T16:04:29.192Z,6.60
2019-03-17T16:06:57.764Z,6.70
2019-03-17T16:09:28.479Z,6.80
2019-03-17T16:11:56.460Z,6.90
2019-03-17T16:14:24.956Z,7.00
2019-03-17T16:16:53.343Z,6.90
2019-03-17T16:19:22.629Z,6.90
2019-03-17T16:21:51.094Z,7.00
2019-03-17T16:24:19.800Z,7.00
2019-03-17T16:26:48.205Z,7.10
2019-03-17T16:29:16.652Z,7.10
2019-03-17T16:31:45.437Z,7.10
2019-03-17T16:34:13.922Z,7.10
2019-03-17T16:36:42.624Z,7.10
2019-03-17T16:39:11.164Z,7.10
2019-03-17T16:41:43.599Z,7.20
2019-03-17T16:44:10.440Z,7.20
2019-03-17T16:46:38.904Z,7.20
2019-03-17T16:49:07.355Z,7.20
2019-03-17T16:51:35.745Z,7.20
2019-03-17T16:54:04.332Z,7.10
2019-03-17T16:56:32.792Z,7.10
2019-03-17T16:59:01.600Z,7.10
2019-03-17T17:01:30.188Z,7.10
2019-03-17T17:03:58.683Z,7.00
2019-03-17T17:06:27.168Z,6.90
2019-03-17T17:08:55.801Z,7.00
2019-03-17T17:11:24.285Z,7.00
2019-03-17T17:13:52.727Z,7.00
2019-03-17T17:16:21.236Z,7.10
2019-03-17T17:18:50.197Z,7.00
2019-03-17T17:21:18.915Z,7.10
2019-03-17T17:23:47.669Z,7.00
2019-03-17T17:26:16.137Z,6.80
2019-03-17T17:28:44.624Z,6.80
2019-03-17T17:31:13.541Z,6.70
2019-03-17T17:33:41.948Z,6.50
2019-03-17T17:36:10.413Z,6.60
2019-03-17T17:38:39.099Z,6.60
2019-03-17T17:41:11.007Z,6.60
2019-03-17T17:43:38.249Z,6.60
2019-03-17T17:46:06.751Z,6.60
2019-03-17T17:48:35.351Z,6.50
2019-03-17T17:51:03.959Z,6.40
2019-03-17T17:53:32.481Z,6.10
2019-03-17T17:56:01.040Z,5.90
2019-03-17T17:58:29.937Z,5.60
2019-03-17T18:00:58.531Z,5.20
2019-03-17T18:03:27.190Z,5.10
2019-03-17T18:05:55.921Z,4.90
2019-03-17T18:08:24.440Z,4.80
2019-03-17T18:10:52.899Z,4.70
2019-03-17T18:13:21.797Z,4.70
2019-03-17T18:15:50.485Z,4.70
2019-03-17T18:18:19.429Z,4.70
2019-03-17T18:20:48.324Z,4.70
2019-03-17T18:23:18.265Z,4.70
2019-03-17T18:25:47.261Z,4.70
2019-03-17T18:28:16.095Z,4.70
2019-03-17T18:30:44.945Z,4.80
2019-03-17T18:33:13.447Z,4.80
2019-03-17T18:35:42.255Z,4.80
2019-03-17T18:38:10.853Z,4.80
2019-03-17T18:40:42.175Z,4.80
2019-03-17T18:43:09.634Z,4.80
2019-03-17T18:45:38.141Z,4.80
2019-03-17T18:48:06.913Z,4.90
2019-03-17T18:50:38.033Z,5.00
2019-03-17T18:53:09.447Z,4.90
2019-03-17T18:55:42.477Z,4.90
2019-03-17T18:58:12.854Z,4.90
2019-03-17T19:00:41.352Z,5.00
2019-03-17T19:03:10.430Z,5.00
2019-03-17T19:05:39.024Z,5.00
2019-03-17T19:08:07.656Z,5.00
2019-03-17T19:10:36.489Z,5.00
2019-03-17T19:13:05.264Z,5.10
2019-03-17T19:15:33.909Z,5.10
2019-03-17T19:18:02.525Z,5.10
2019-03-17T19:20:31.115Z,5.10
2019-03-17T19:22:59.982Z,5.20
2019-03-17T19:25:28.588Z,5.30
2019-03-17T19:27:57.264Z,5.30
2019-03-17T19:30:28.115Z,5.30
2019-03-17T19:32:56.800Z,5.20
2019-03-17T19:35:25.815Z,5.20
2019-03-17T19:37:54.352Z,5.20
2019-03-17T19:40:22.979Z,5.30
2019-03-17T19:42:58.734Z,5.30
2019-03-17T19:45:21.930Z,5.30
2019-03-17T19:47:50.609Z,5.30
2019-03-17T19:50:19.188Z,5.30
2019-03-17T19:52:47.722Z,5.20
2019-03-17T19:55:16.515Z,5.20
2019-03-17T19:57:45.463Z,5.20
2019-03-17T20:00:15.302Z,5.20
2019-03-17T20:02:46.986Z,5.20
2019-03-17T20:05:14.778Z,5.10
2019-03-17T20:07:43.261Z,5.00
2019-03-17T20:10:12.857Z,5.00
2019-03-17T20:12:41.546Z,4.90
2019-03-17T20:15:10.109Z,4.90
2019-03-17T20:17:38.765Z,4.90
2019-03-17T20:20:08.148Z,4.80
2019-03-17T20:22:36.642Z,4.80
2019-03-17T20:25:05.132Z,4.70
2019-03-17T20:27:33.869Z,4.70
2019-03-17T20:30:02.673Z,4.60
2019-03-17T20:32:31.087Z,4.60
2019-03-17T20:34:59.668Z,4.60
2019-03-17T20:37:28.235Z,4.70
2019-03-17T20:39:57.014Z,4.60
2019-03-17T20:42:29.153Z,4.60
2019-03-17T20:44:57.623Z,4.60
2019-03-17T20:47:26.148Z,4.60
2019-03-17T20:49:55.491Z,4.70
2019-03-17T20:52:25.206Z,4.60
2019-03-17T20:54:54.224Z,4.60
2019-03-17T20:57:22.801Z,4.60
2019-03-17T20:59:51.234Z,4.60
2019-03-17T21:02:20.984Z,4.40
2019-03-17T21:04:50.742Z,4.50
2019-03-17T21:07:19.769Z,4.50
2019-03-17T21:09:48.349Z,4.60
2019-03-17T21:12:16.987Z,4.60
2019-03-17T21:14:45.681Z,4.60
2019-03-17T21:17:14.309Z,4.70
2019-03-17T21:19:42.897Z,4.60
2019-03-17T21:22:11.431Z,4.70
2019-03-17T21:24:39.893Z,4.60
2019-03-17T21:27:08.266Z,4.60
2019-03-17T21:29:37.178Z,4.60
2019-03-17T21:32:05.975Z,4.60
2019-03-17T21:34:34.428Z,4.70
2019-03-17T21:37:03.250Z,4.60
2019-03-17T21:39:31.595Z,4.70
2019-03-17T21:42:00.054Z,4.60
2019-03-17T21:44:28.614Z,4.50
2019-03-17T21:46:57.435Z,4.30
2019-03-17T21:49:25.841Z,4.30
2019-03-17T21:51:54.416Z,4.20
2019-03-17T21:54:23.737Z,4.10
2019-03-17T21:56:52.163Z,4.10
2019-03-17T21:59:20.538Z,4.10
2019-03-17T22:01:48.978Z,3.90
2019-03-17T22:04:17.381Z,3.90
2019-03-17T22:06:45.739Z,3.90
2019-03-17T22:09:17.107Z,3.80
2019-03-17T22:11:44.279Z,3.80
2019-03-17T22:14:12.769Z,3.80
2019-03-17T22:16:41.259Z,3.70
2019-03-17T22:19:09.668Z,3.80
2019-03-17T22:21:38.078Z,3.70
2019-03-17T22:24:06.382Z,3.70
2019-03-17T22:26:34.818Z,3.70
2019-03-17T22:29:03.308Z,3.60
2019-03-17T22:31:31.693Z,3.60
2019-03-17T22:34:00.177Z,3.50
2019-03-17T22:36:29.009Z,3.50
2019-03-17T22:38:57.427Z,3.50
2019-03-17T22:41:25.830Z,3.50
2019-03-17T22:43:55.195Z,3.50
2019-03-17T22:46:23.822Z,3.50
2019-03-17T22:48:52.159Z,3.50
2019-03-17T22:51:20.496Z,3.40
2019-03-17T22:53:48.816Z,3.40
2019-03-17T22:56:17.194Z,3.50
2019-03-17T22:58:45.643Z,3.50
2019-03-17T23:01:14.055Z,3.50
2019-03-17T23:03:42.393Z,3.50
2019-03-17T23:06:10.751Z,3.50
2019-03-17T23:08:39.107Z,3.50
2019-03-17T23:11:07.524Z,3.50
2019-03-17T23:13:35.955Z,3.50
2019-03-17T23:16:04.269Z,3.60
2019-03-17T23:18:32.939Z,3.50
2019-03-17T23:21:01.258Z,3.50
2019-03-17T23:23:29.570Z,3.40
2019-03-17T23:25:57.987Z,3.50
2019-03-17T23:28:26.659Z,3.40
2019-03-17T23:30:55.126Z,3.50
2019-03-17T23:33:23.509Z,3.40
2019-03-17T23:35:52.040Z,3.40
2019-03-17T23:38:20.306Z,3.50
2019-03-17T23:40:48.617Z,3.50
2019-03-17T23:43:17.140Z,3.40
2019-03-17T23:45:45.422Z,3.50
2019-03-17T23:48:13.746Z,3.50
2019-03-17T23:50:43.748Z,3.50
2019-03-17T23:53:12.083Z,3.50
2019-03-17T23:55:40.337Z,3.50
2019-03-17T23:58:08.690Z,3.40
